createdAt,value
2019-01-18T00:01:36.567Z,-8.46
2019-01-18T00:04:04.851Z,-8.07
2019-01-18T00:06:33.154Z,-8.52
2019-01-18T00:09:01.427Z,-8.63
2019-01-18T00:11:29.689Z,-8.28
2019-01-18T00:13:58.083Z,-8.39
2019-01-18T00:16:26.333Z,-8.14
2019-01-18T00:18:54.635Z,-8.24
2019-01-18T00:21:23.112Z,-8.47
2019-01-18T00:23:51.471Z,-8.62
2019-01-18T00:26:19.772Z,-8.52
2019-01-18T00:28:48.219Z,-8.34
2019-01-18T00:31:16.543Z,-8.48
2019-01-18T00:33:44.864Z,-8.04
2019-01-18T00:36:13.127Z,-8.06
2019-01-18T00:38:41.427Z,-8.31
2019-01-18T00:41:09.667Z,-8.14
2019-01-18T00:43:38.119Z,-8.48
2019-01-18T00:46:06.380Z,-8.36
2019-01-18T00:48:34.720Z,-8.59
2019-01-18T00:51:03.063Z,-8.41
2019-01-18T00:53:31.331Z,-8.47
2019-01-18T00:55:59.599Z,-8.26
2019-01-18T00:58:27.987Z,-8.50
2019-01-18T01:00:56.347Z,-8.45
2019-01-18T01:03:24.644Z,-8.52
2019-01-18T01:05:53.043Z,-8.44
2019-01-18T01:08:21.368Z,-8.24
2019-01-18T01:10:49.692Z,-8.29
2019-01-18T01:13:18.103Z,-8.25
2019-01-18T01:15:46.452Z,-8.26
2019-01-18T01:18:14.763Z,-8.18
2019-01-18T01:20:43.125Z,-7.94
2019-01-18T01:23:11.407Z,-8.08
2019-01-18T01:25:39.655Z,-7.98
2019-01-18T01:28:07.943Z,-7.86
2019-01-18T01:30:36.324Z,-8.12
2019-01-18T01:33:04.599Z,-7.74
2019-01-18T01:35:33.048Z,-7.91
2019-01-18T01:38:01.339Z,-7.80
2019-01-18T01:40:29.569Z,-7.72
2019-01-18T01:42:57.877Z,-7.65
2019-01-18T01:45:26.119Z,-7.64
2019-01-18T01:47:54.401Z,-7.55
2019-01-18T01:50:26.489Z,-7.56
2019-01-18T01:52:55.033Z,-7.60
2019-01-18T01:55:23.279Z,-7.75
2019-01-18T01:57:51.639Z,-7.76
2019-01-18T02:00:20.811Z,-7.71
2019-01-18T02:02:49.182Z,-7.75
2019-01-18T02:05:17.607Z,-7.67
2019-01-18T02:07:46.026Z,-7.91
2019-01-18T02:10:14.557Z,-7.58
2019-01-18T02:12:42.848Z,-7.54
2019-01-18T02:15:12.228Z,-7.51
2019-01-18T02:17:40.488Z,-7.48
2019-01-18T02:20:09.972Z,-7.61
2019-01-18T02:22:38.235Z,-7.58
2019-01-18T02:25:06.708Z,-7.54
2019-01-18T02:27:35.129Z,-7.57
2019-01-18T02:30:03.386Z,-7.73
2019-01-18T02:32:31.623Z,-7.67
2019-01-18T02:34:59.932Z,-7.86
2019-01-18T02:37:28.191Z,-7.90
2019-01-18T02:39:56.475Z,-7.73
2019-01-18T02:42:24.844Z,-7.77
2019-01-18T02:44:53.160Z,-7.71
2019-01-18T02:47:21.419Z,-7.65
2019-01-18T02:49:49.732Z,-7.65
2019-01-18T02:52:17.978Z,-7.70
2019-01-18T02:54:46.211Z,-7.60
2019-01-18T02:57:14.553Z,-7.61
2019-01-18T02:59:42.819Z,-7.63
2019-01-18T03:02:11.078Z,-7.72
2019-01-18T03:04:39.477Z,-7.77
2019-01-18T03:07:07.771Z,-7.70
2019-01-18T03:09:36.027Z,-7.44
2019-01-18T03:12:04.399Z,-7.46
2019-01-18T03:14:32.718Z,-7.53
2019-01-18T03:17:00.935Z,-7.58
2019-01-18T03:19:29.229Z,-7.47
2019-01-18T03:21:57.479Z,-7.40
2019-01-18T03:24:25.724Z,-7.73
2019-01-18T03:26:54.120Z,-7.55
2019-01-18T03:29:22.355Z,-7.42
2019-01-18T03:31:50.602Z,-7.65
2019-01-18T03:34:18.884Z,-7.59
2019-01-18T03:36:47.140Z,-7.56
2019-01-18T03:39:15.370Z,-7.57
2019-01-18T03:41:43.707Z,-7.51
2019-01-18T03:44:11.951Z,-7.61
2019-01-18T03:46:40.293Z,-7.48
2019-01-18T03:49:08.695Z,-7.60
2019-01-18T03:51:36.968Z,-7.55
2019-01-18T03:54:05.224Z,-7.67
2019-01-18T03:56:33.604Z,-7.67
2019-01-18T03:59:01.820Z,-7.80
2019-01-18T04:01:30.076Z,-7.74
2019-01-18T04:03:58.431Z,-7.87
2019-01-18T04:06:26.815Z,-7.88
2019-01-18T04:08:55.078Z,-7.84
2019-01-18T04:11:23.415Z,-7.77
2019-01-18T04:13:51.763Z,-7.97
2019-01-18T04:16:21.812Z,-7.95
2019-01-18T04:18:50.203Z,-7.79
2019-01-18T04:21:18.456Z,-7.83
2019-01-18T04:23:48.299Z,-7.85
2019-01-18T04:26:16.686Z,-7.90
2019-01-18T04:28:44.931Z,-7.95
2019-01-18T04:31:13.197Z,-8.05
2019-01-18T04:33:41.581Z,-7.87
2019-01-18T04:36:09.833Z,-7.94
2019-01-18T04:38:38.082Z,-7.82
2019-01-18T04:41:06.487Z,-7.79
2019-01-18T04:43:34.747Z,-8.06
2019-01-18T04:46:03.004Z,-7.92
2019-01-18T04:48:31.405Z,-8.24
2019-01-18T04:50:59.640Z,-8.16
2019-01-18T04:53:27.940Z,-8.08
2019-01-18T04:55:56.277Z,-8.06
2019-01-18T04:58:24.541Z,-7.91
2019-01-18T05:00:52.802Z,-7.90
2019-01-18T05:03:21.122Z,-7.94
2019-01-18T05:05:49.394Z,-8.17
2019-01-18T05:08:17.761Z,-8.02
2019-01-18T05:10:46.146Z,-8.14
2019-01-18T05:13:15.266Z,-8.15
2019-01-18T05:15:43.625Z,-7.92
2019-01-18T05:18:11.919Z,-7.86
2019-01-18T05:20:40.199Z,-7.93
2019-01-18T05:23:08.503Z,-7.99
2019-01-18T05:25:36.907Z,-8.00
2019-01-18T05:28:05.131Z,-8.04
2019-01-18T05:30:33.393Z,-7.76
2019-01-18T05:33:01.780Z,-7.56
2019-01-18T05:35:30.053Z,-8.12
2019-01-18T05:37:58.335Z,-7.88
2019-01-18T05:40:26.635Z,-7.78
2019-01-18T05:42:54.907Z,-8.08
2019-01-18T05:45:23.124Z,-7.98
2019-01-18T05:47:51.419Z,-8.18
2019-01-18T05:50:20.640Z,-8.12
2019-01-18T05:52:48.903Z,-8.20
2019-01-18T05:55:17.307Z,-8.13
2019-01-18T05:57:45.580Z,-8.15
2019-01-18T06:00:20.776Z,-8.15
2019-01-18T06:02:49.028Z,-8.36
2019-01-18T06:05:17.713Z,-8.38
2019-01-18T06:07:46.577Z,-8.40
2019-01-18T06:10:15.834Z,-8.20
2019-01-18T06:12:44.778Z,-7.95
2019-01-18T06:15:14.465Z,-8.06
2019-01-18T06:17:43.024Z,-8.39
2019-01-18T06:20:11.704Z,-8.21
2019-01-18T06:22:51.341Z,-8.13
2019-01-18T06:25:20.227Z,-8.09
2019-01-18T06:27:49.004Z,-8.10
2019-01-18T06:30:17.655Z,-8.35
2019-01-18T06:32:48.010Z,-8.24
2019-01-18T06:35:16.801Z,-8.23
2019-01-18T06:37:46.758Z,-8.21
2019-01-18T06:40:25.077Z,-8.19
2019-01-18T06:43:06.546Z,-8.13
2019-01-18T06:45:36.563Z,-8.37
2019-01-18T06:48:09.245Z,-8.21
2019-01-18T06:50:38.048Z,-8.17
2019-01-18T06:53:07.192Z,-8.29
2019-01-18T06:55:35.904Z,-8.15
2019-01-18T06:58:13.140Z,-8.12
2019-01-18T07:00:41.909Z,-8.08
2019-01-18T07:03:37.702Z,-7.95
2019-01-18T07:06:07.801Z,-7.95
2019-01-18T07:08:41.790Z,-7.96
2019-01-18T07:11:12.914Z,-8.00
2019-01-18T07:13:41.635Z,-7.95
2019-01-18T07:16:10.483Z,-8.13
2019-01-18T07:18:41.864Z,-8.09
2019-01-18T07:21:17.842Z,-8.02
2019-01-18T07:26:35.354Z,-8.24
2019-01-18T07:29:04.919Z,-8.07
2019-01-18T07:31:36.383Z,-8.01
2019-01-18T07:34:05.891Z,-7.98
2019-01-18T07:36:47.034Z,-8.14
2019-01-18T07:39:22.174Z,-7.96
2019-01-18T07:41:47.724Z,-8.01
2019-01-18T07:44:16.922Z,-7.87
2019-01-18T07:46:47.325Z,-8.05
2019-01-18T07:49:19.991Z,-8.07
2019-01-18T07:51:55.883Z,-7.94
2019-01-18T07:54:24.975Z,-7.82
2019-01-18T07:56:58.144Z,-7.80
2019-01-18T07:59:28.757Z,-7.72
2019-01-18T08:01:57.866Z,-7.73
2019-01-18T08:04:27.962Z,-7.63
2019-01-18T08:06:59.880Z,-7.79
2019-01-18T08:09:29.047Z,-7.78
2019-01-18T08:11:59.630Z,-7.80
2019-01-18T08:14:30.785Z,-7.56
2019-01-18T08:16:59.356Z,-7.69
2019-01-18T08:19:29.072Z,-7.64
2019-01-18T08:21:57.624Z,-7.61
2019-01-18T08:24:26.940Z,-7.49
2019-01-18T08:26:58.533Z,-7.61
2019-01-18T08:29:27.167Z,-7.33
2019-01-18T08:31:56.365Z,-7.59
2019-01-18T08:34:28.276Z,-7.36
2019-01-18T08:36:57.015Z,-7.34
2019-01-18T08:39:25.548Z,-7.28
2019-01-18T08:42:05.183Z,-7.37
2019-01-18T08:44:44.607Z,-7.17
2019-01-18T08:47:13.555Z,-7.22
2019-01-18T08:49:45.105Z,-7.12
2019-01-18T08:52:14.461Z,-7.25
2019-01-18T08:54:45.593Z,-7.17
2019-01-18T08:57:15.164Z,-7.12
2019-01-18T08:59:45.634Z,-6.96
2019-01-18T09:02:14.428Z,-6.93
2019-01-18T09:04:42.883Z,-6.79
2019-01-18T09:07:13.004Z,-6.69
2019-01-18T09:09:41.859Z,-6.54
2019-01-18T09:12:16.915Z,-6.65
2019-01-18T09:14:50.740Z,-6.59
2019-01-18T09:17:22.170Z,-6.50
2019-01-18T09:20:01.554Z,-6.45
2019-01-18T09:22:32.659Z,-6.73
2019-01-18T09:25:02.488Z,-6.65
2019-01-18T09:27:38.270Z,-6.71
2019-01-18T09:30:14.585Z,-6.52
2019-01-18T09:32:44.018Z,-6.45
2019-01-18T09:35:14.650Z,-6.55
2019-01-18T09:37:46.441Z,-6.46
2019-01-18T09:40:16.101Z,-6.53
2019-01-18T09:42:48.071Z,-6.52
2019-01-18T09:45:16.764Z,-6.52
2019-01-18T09:47:47.150Z,-6.37
2019-01-18T09:50:18.787Z,-6.32
2019-01-18T09:52:51.511Z,-6.48
2019-01-18T09:55:26.940Z,-6.49
2019-01-18T09:57:58.682Z,-6.52
2019-01-18T10:00:32.978Z,-6.48
2019-01-18T10:03:03.993Z,-6.44
2019-01-18T10:05:40.200Z,-6.34
2019-01-18T10:08:12.972Z,-6.25
2019-01-18T10:10:53.548Z,-6.37
2019-01-18T10:16:58.435Z,-6.19
2019-01-18T10:19:47.522Z,-6.07
2019-01-18T10:25:44.260Z,-5.98
2019-01-18T10:28:43.658Z,-5.98
2019-01-18T11:15:25.227Z,-5.24
2019-01-18T11:32:44.516Z,-5.04
2019-01-18T11:39:15.969Z,-5.00
2019-01-18T11:42:05.342Z,-4.94
2019-01-18T11:44:51.744Z,-4.84
2019-01-18T11:47:22.276Z,-4.83
2019-01-18T11:49:52.223Z,-4.72
2019-01-18T11:52:20.977Z,-4.82
2019-01-18T11:54:52.024Z,-4.83
2019-01-18T11:57:34.399Z,-4.74
2019-01-18T12:00:05.886Z,-4.71
2019-01-18T12:02:35.917Z,-4.71
2019-01-18T12:05:05.730Z,-4.74
2019-01-18T12:07:38.906Z,-4.66
2019-01-18T12:10:09.046Z,-4.75
2019-01-18T12:12:40.134Z,-4.71
2019-01-18T12:15:13.180Z,-4.75
2019-01-18T12:17:44.632Z,-4.80
2019-01-18T12:20:18.515Z,-4.76
2019-01-18T12:22:49.766Z,-4.70
2019-01-18T12:25:19.424Z,-4.77
2019-01-18T12:27:48.413Z,-4.70
2019-01-18T12:30:18.923Z,-4.82
2019-01-18T12:32:52.628Z,-4.72
2019-01-18T12:35:21.886Z,-4.70
2019-01-18T12:37:51.517Z,-4.63
2019-01-18T12:40:22.040Z,-4.68
2019-01-18T12:42:51.433Z,-4.80
2019-01-18T12:45:33.690Z,-4.66
2019-01-18T12:48:07.221Z,-4.67
2019-01-18T12:50:54.342Z,-4.61
2019-01-18T12:53:41.243Z,-4.62
2019-01-18T12:56:14.520Z,-4.56
2019-01-18T12:58:47.852Z,-4.49
2019-01-18T13:01:33.900Z,-4.53
2019-01-18T13:04:08.428Z,-4.61
2019-01-18T13:06:40.519Z,-4.69
2019-01-18T13:09:20.232Z,-4.78
2019-01-18T13:12:07.515Z,-4.61
2019-01-18T13:14:48.317Z,-4.86
2019-01-18T13:17:21.114Z,-4.76
2019-01-18T13:22:55.462Z,-4.70
2019-01-18T13:25:29.886Z,-4.72
2019-01-18T13:28:03.738Z,-4.83
2019-01-18T13:37:03.223Z,-4.89
2019-01-18T13:39:30.939Z,-4.85
2019-01-18T13:42:01.899Z,-4.83
2019-01-18T13:44:31.633Z,-4.77
2019-01-18T13:47:06.204Z,-4.83
2019-01-18T13:49:35.205Z,-5.01
2019-01-18T13:52:05.158Z,-5.00
2019-01-18T13:54:36.755Z,-5.04
2019-01-18T13:57:05.513Z,-5.05
2019-01-18T13:59:35.587Z,-5.16
2019-01-18T14:02:05.470Z,-5.13
2019-01-18T14:04:37.406Z,-5.07
2019-01-18T14:07:09.140Z,-5.21
2019-01-18T14:09:40.002Z,-4.92
2019-01-18T14:12:11.258Z,-5.28
2019-01-18T14:14:43.225Z,-5.27
2019-01-18T14:17:19.177Z,-5.37
2019-01-18T14:19:57.075Z,-5.24
2019-01-18T14:22:29.860Z,-5.52
2019-01-18T14:25:12.385Z,-5.35
2019-01-18T14:27:57.576Z,-5.50
2019-01-18T14:30:43.758Z,-5.41
2019-01-18T14:56:43.415Z,-5.77
2019-01-18T15:23:20.381Z,-6.06
2019-01-18T15:26:00.610Z,-6.06
2019-01-18T15:28:35.071Z,-6.13
2019-01-18T15:31:21.729Z,-6.25
2019-01-18T15:52:58.603Z,-6.21
2019-01-18T15:55:37.465Z,-6.21
2019-01-18T15:58:32.164Z,-6.18
2019-01-18T16:01:20.198Z,-6.31
2019-01-18T16:03:51.954Z,-6.43
2019-01-18T16:06:46.560Z,-6.43
2019-01-18T16:09:52.231Z,-6.42
2019-01-18T16:25:22.592Z,-6.77
2019-01-18T16:28:11.241Z,-6.64
2019-01-18T16:31:14.875Z,-6.39
2019-01-18T16:34:33.672Z,-6.82
2019-01-18T16:37:11.254Z,-6.77
2019-01-18T16:39:50.520Z,-6.61
2019-01-18T16:49:07.999Z,-6.59
2019-01-18T16:55:20.487Z,-6.41
2019-01-18T16:57:56.015Z,-6.54
2019-01-18T17:00:41.246Z,-6.76
2019-01-18T17:06:30.430Z,-6.51
2019-01-18T17:09:09.743Z,-6.56
2019-01-18T17:11:42.029Z,-6.72
2019-01-18T17:17:24.146Z,-6.66
2019-01-18T17:23:54.032Z,-6.39
2019-01-18T17:56:54.444Z,-6.74
2019-01-18T18:10:09.069Z,-6.68
2019-01-18T18:13:29.369Z,-6.80
2019-01-18T18:16:39.418Z,-6.96
2019-01-18T18:19:43.782Z,-6.89
2019-01-18T18:26:00.710Z,-7.05
2019-01-18T18:31:55.730Z,-7.02
2019-01-18T19:13:17.518Z,-7.37
2019-01-18T19:16:26.456Z,-7.27
2019-01-18T19:19:32.046Z,-7.28
2019-01-18T19:22:59.967Z,-7.24
2019-01-18T19:28:57.817Z,-7.35
2019-01-18T19:42:51.946Z,-7.05
2019-01-18T19:49:18.465Z,-6.77
2019-01-18T20:05:14.683Z,-6.84
2019-01-18T20:11:30.231Z,-7.40
2019-01-18T20:17:55.676Z,-7.05
2019-01-18T20:24:07.336Z,-7.15
2019-01-18T20:30:24.709Z,-7.15
2019-01-18T20:55:36.259Z,-7.36
2019-01-18T21:37:33.025Z,-7.10
2019-01-18T21:40:47.455Z,-7.31
2019-01-18T21:57:56.098Z,-7.45
2019-01-18T22:04:19.966Z,-7.35
2019-01-18T22:10:50.185Z,-7.16
2019-01-18T22:13:50.413Z,-7.23
2019-01-18T22:17:07.870Z,-7.30
2019-01-18T22:26:50.234Z,-7.23
2019-01-18T22:29:50.447Z,-7.41
2019-01-18T22:33:00.892Z,-7.35
2019-01-18T22:50:15.142Z,-7.39
2019-01-18T22:52:52.912Z,-7.61
2019-01-18T22:55:56.977Z,-7.44
2019-01-18T22:58:45.938Z,-7.73
2019-01-18T23:04:56.014Z,-7.74
2019-01-18T23:07:50.321Z,-7.75
2019-01-18T23:14:37.319Z,-7.63
2019-01-18T23:17:42.695Z,-7.71
2019-01-18T23:20:46.074Z,-7.44
2019-01-18T23:24:06.040Z,-7.55
2019-01-18T23:27:03.870Z,-7.61
2019-01-18T23:33:22.730Z,-7.72
2019-01-18T23:36:21.192Z,-7.63
2019-01-18T23:39:26.525Z,-7.56
2019-01-18T23:42:59.611Z,-7.86
2019-01-18T23:45:59.145Z,-7.70
2019-01-18T23:59:10.115Z,-7.63
